createdAt,value
2022-08-28T00:00:01.117Z,18.28
2022-08-28T00:02:28.612Z,18.23
2022-08-28T00:04:55.500Z,18.17
2022-08-28T00:07:22.292Z,18.25
2022-08-28T00:09:48.983Z,18.24
2022-08-28T00:12:15.786Z,18.12
2022-08-28T00:14:42.725Z,18.18
2022-08-28T00:17:09.597Z,18.17
2022-08-28T00:19:38.686Z,18.25
2022-08-28T00:22:06.813Z,18.57
2022-08-28T00:24:34.312Z,18.63
2022-08-28T00:27:19.693Z,18.45
2022-08-28T00:29:46.493Z,18.38
2022-08-28T00:32:13.820Z,18.26
2022-08-28T00:34:43.273Z,18.23
2022-08-28T00:40:32.376Z,18.38
2022-08-28T00:43:19.076Z,18.27
2022-08-28T00:47:29.120Z,18.14
2022-08-28T00:53:36.360Z,18.00
2022-08-28T01:03:25.207Z,17.79
2022-08-28T01:14:15.281Z,17.64
2022-08-28T01:20:53.595Z,17.50
2022-08-28T01:23:57.897Z,17.56
2022-08-28T01:26:39.635Z,17.53
2022-08-28T01:29:15.444Z,17.52
2022-08-28T01:31:58.455Z,17.34
2022-08-28T01:34:40.813Z,17.52
2022-08-28T01:53:25.424Z,17.44
2022-08-28T01:56:17.007Z,17.66
2022-08-28T01:59:03.466Z,17.56
2022-08-28T02:01:35.482Z,17.32
2022-08-28T02:05:05.997Z,17.29
2022-08-28T02:08:05.072Z,17.32
2022-08-28T02:10:42.396Z,17.32
2022-08-28T02:13:35.590Z,17.68
2022-08-28T02:16:38.229Z,17.23
2022-08-28T02:19:23.598Z,17.22
2022-08-28T02:22:14.003Z,17.19
2022-08-28T02:25:40.368Z,17.39
2022-08-28T02:28:43.538Z,17.14
2022-08-28T02:31:19.417Z,17.21
2022-08-28T02:34:01.597Z,17.24
2022-08-28T02:36:43.708Z,17.15
2022-08-28T02:39:21.814Z,17.18
2022-08-28T02:42:12.314Z,17.06
2022-08-28T02:44:53.090Z,17.07
2022-08-28T02:47:53.811Z,17.13
2022-08-28T02:50:23.636Z,16.90
2022-08-28T02:53:04.507Z,17.06
2022-08-28T02:55:34.229Z,16.85
2022-08-28T02:58:04.477Z,17.09
2022-08-28T03:00:35.061Z,17.10
2022-08-28T03:03:05.708Z,16.92
2022-08-28T03:05:35.944Z,17.09
2022-08-28T03:08:09.864Z,16.91
2022-08-28T03:13:59.735Z,17.05
2022-08-28T03:19:47.242Z,16.87
2022-08-28T03:22:16.789Z,16.82
2022-08-28T03:24:48.664Z,16.77
2022-08-28T03:27:18.352Z,16.63
2022-08-28T03:29:53.239Z,16.58
2022-08-28T03:32:29.258Z,16.62
2022-08-28T03:34:57.833Z,16.45
2022-08-28T03:37:25.205Z,16.72
2022-08-28T03:39:54.764Z,16.72
2022-08-28T03:42:24.924Z,16.60
2022-08-28T03:44:52.158Z,16.43
2022-08-28T03:47:22.574Z,16.37
2022-08-28T03:49:57.905Z,16.57
2022-08-28T03:52:25.791Z,16.64
2022-08-28T03:54:57.655Z,16.55
2022-08-28T03:57:29.397Z,16.46
2022-08-28T04:02:44.721Z,16.47
2022-08-28T04:05:17.513Z,16.68
2022-08-28T04:07:45.357Z,16.42
2022-08-28T04:10:18.046Z,16.53
2022-08-28T04:12:52.362Z,16.36
2022-08-28T04:15:22.032Z,16.47
2022-08-28T04:18:16.368Z,16.51
2022-08-28T04:21:18.224Z,16.53
2022-08-28T04:23:48.093Z,16.69
2022-08-28T04:26:41.882Z,16.55
2022-08-28T04:29:27.530Z,16.40
2022-08-28T04:31:58.438Z,16.32
2022-08-28T04:34:25.773Z,16.61
2022-08-28T04:36:53.220Z,16.44
2022-08-28T04:39:20.485Z,16.44
2022-08-28T04:41:47.478Z,16.64
2022-08-28T04:44:28.424Z,16.58
2022-08-28T05:04:41.439Z,16.39
2022-08-28T05:08:01.450Z,16.54
2022-08-28T05:25:01.562Z,16.33
2022-08-28T05:27:30.856Z,16.53
2022-08-28T05:30:21.258Z,16.60
2022-08-28T05:32:50.639Z,16.71
2022-08-28T05:35:20.143Z,16.52
2022-08-28T05:37:57.654Z,16.54
2022-08-28T05:41:35.472Z,16.65
2022-08-28T05:43:26.359Z,16.52
2022-08-28T05:46:05.982Z,16.65
2022-08-28T05:48:49.454Z,16.58
2022-08-28T05:51:28.326Z,16.32
2022-08-28T05:54:43.113Z,16.49
2022-08-28T05:57:46.235Z,16.43
2022-08-28T06:00:42.874Z,16.54
2022-08-28T06:03:09.941Z,16.44
2022-08-28T06:05:39.758Z,16.51
2022-08-28T06:08:06.860Z,16.45
2022-08-28T06:10:45.920Z,16.41
2022-08-28T06:13:23.159Z,16.50
2022-08-28T06:15:58.201Z,16.53
2022-08-28T06:18:34.866Z,16.98
2022-08-28T06:21:06.508Z,16.92
2022-08-28T06:23:56.991Z,16.99
2022-08-28T06:26:58.118Z,16.91
2022-08-28T06:29:35.741Z,17.07
2022-08-28T06:32:10.546Z,16.68
2022-08-28T06:35:12.051Z,16.74
2022-08-28T06:57:07.759Z,17.45
2022-08-28T06:59:51.084Z,17.60
2022-08-28T07:09:41.725Z,17.29
2022-08-28T07:12:25.815Z,17.32
2022-08-28T07:14:59.160Z,17.34
2022-08-28T07:17:41.729Z,17.27
2022-08-28T07:20:40.805Z,17.19
2022-08-28T07:24:07.079Z,17.42
2022-08-28T07:27:06.742Z,17.48
2022-08-28T07:29:46.184Z,17.36
2022-08-28T07:36:33.987Z,17.62
2022-08-28T07:47:36.341Z,17.43
2022-08-28T07:50:03.781Z,17.79
2022-08-28T07:52:36.593Z,17.97
2022-08-28T07:55:30.393Z,17.93
2022-08-28T07:58:14.984Z,18.08
2022-08-28T08:03:38.662Z,18.36
2022-08-28T08:06:08.462Z,18.21
2022-08-28T08:08:43.370Z,18.28
2022-08-28T08:11:49.098Z,18.14
2022-08-28T08:14:17.119Z,18.45
2022-08-28T08:17:29.436Z,18.44
2022-08-28T08:20:11.505Z,18.53
2022-08-28T08:23:16.727Z,18.37
2022-08-28T08:26:38.054Z,18.33
2022-08-28T08:33:01.682Z,18.46
2022-08-28T08:33:04.705Z,18.57
2022-08-28T08:36:21.474Z,18.48
2022-08-28T08:42:45.078Z,18.81
2022-08-28T08:45:35.449Z,18.95
2022-08-28T08:48:34.495Z,19.05
2022-08-28T08:52:13.788Z,18.79
2022-08-28T08:55:11.896Z,18.84
2022-08-28T08:59:00.917Z,18.81
2022-08-28T09:20:16.644Z,19.04
2022-08-28T09:24:17.848Z,18.93
2022-08-28T09:26:42.411Z,19.13
2022-08-28T09:47:12.591Z,19.31
2022-08-28T09:49:42.786Z,19.20
2022-08-28T09:52:44.989Z,19.26
2022-08-28T09:56:06.026Z,19.46
2022-08-28T09:59:25.175Z,19.63
2022-08-28T10:02:11.930Z,19.55
2022-08-28T10:05:45.383Z,19.70
2022-08-28T10:08:27.035Z,19.66
2022-08-28T10:10:56.075Z,19.56
2022-08-28T10:13:35.087Z,19.66
2022-08-28T10:20:14.562Z,19.46
2022-08-28T10:23:17.760Z,19.50
2022-08-28T10:30:35.264Z,19.28
2022-08-28T10:33:43.396Z,19.55
2022-08-28T10:40:22.110Z,19.61
2022-08-28T10:57:58.093Z,19.98
2022-08-28T11:00:28.254Z,20.05
2022-08-28T11:03:33.556Z,20.23
2022-08-28T11:06:44.087Z,19.86
2022-08-28T11:10:18.073Z,20.03
2022-08-28T11:12:59.924Z,20.09
2022-08-28T11:15:36.432Z,19.96
2022-08-28T11:22:27.080Z,20.22
2022-08-28T11:25:07.667Z,20.36
2022-08-28T11:27:40.086Z,20.01
2022-08-28T11:30:09.729Z,20.24
2022-08-28T11:33:15.055Z,20.29
2022-08-28T11:36:21.701Z,20.29
2022-08-28T11:38:55.748Z,20.42
2022-08-28T11:53:54.179Z,20.38
2022-08-28T13:52:09.536Z,21.72
2022-08-28T13:58:42.963Z,21.85
2022-08-28T14:01:30.588Z,21.88
2022-08-28T14:04:43.307Z,21.78
2022-08-28T14:18:02.486Z,21.86
2022-08-28T14:20:37.428Z,21.99
2022-08-28T14:23:08.768Z,21.95
2022-08-28T14:25:47.792Z,21.88
2022-08-28T14:28:46.938Z,21.83
2022-08-28T14:31:35.254Z,21.92
2022-08-28T14:34:05.141Z,21.83
2022-08-28T14:36:39.973Z,21.99
2022-08-28T14:39:12.830Z,21.93
2022-08-28T14:41:46.134Z,22.15
2022-08-28T14:44:26.125Z,22.00
2022-08-28T14:46:59.408Z,22.06
2022-08-28T14:49:28.392Z,22.06
2022-08-28T14:51:56.995Z,22.02
2022-08-28T14:54:24.883Z,22.08
2022-08-28T14:56:54.791Z,21.91
2022-08-28T15:00:00.383Z,22.06
2022-08-28T15:03:09.142Z,22.18
2022-08-28T15:05:42.304Z,22.32
2022-08-28T15:08:14.452Z,22.35
2022-08-28T15:11:24.229Z,22.34
2022-08-28T15:14:08.899Z,22.40
2022-08-28T15:16:46.910Z,22.34
2022-08-28T15:19:17.809Z,22.28
2022-08-28T15:21:51.230Z,22.25
2022-08-28T15:24:21.564Z,22.43
2022-08-28T15:26:48.503Z,22.45
2022-08-28T15:29:16.561Z,22.42
2022-08-28T15:31:47.024Z,22.50
2022-08-28T15:34:19.760Z,22.42
2022-08-28T15:36:55.881Z,22.75
2022-08-28T15:43:27.925Z,22.97
2022-08-28T15:46:01.022Z,23.01
2022-08-28T15:48:32.917Z,22.95
2022-08-28T15:51:03.571Z,23.20
2022-08-28T15:53:34.482Z,23.34
2022-08-28T15:56:11.018Z,23.21
2022-08-28T15:58:38.478Z,23.36
2022-08-28T16:01:20.590Z,23.42
2022-08-28T16:04:26.682Z,23.26
2022-08-28T16:07:00.377Z,23.15
2022-08-28T16:09:27.758Z,23.21
2022-08-28T16:12:20.577Z,23.29
2022-08-28T16:15:23.827Z,23.27
2022-08-28T16:21:26.832Z,23.34
2022-08-28T16:23:55.702Z,23.46
2022-08-28T16:26:23.319Z,23.46
2022-08-28T16:28:52.895Z,23.54
2022-08-28T16:31:21.841Z,23.41
2022-08-28T16:33:49.872Z,23.59
2022-08-28T16:36:18.557Z,23.63
2022-08-28T16:38:59.633Z,23.42
2022-08-28T16:41:28.865Z,23.35
2022-08-28T16:43:59.280Z,23.39
2022-08-28T16:46:37.311Z,23.50
2022-08-28T16:49:13.508Z,23.48
2022-08-28T16:51:44.847Z,23.74
2022-08-28T16:54:11.893Z,23.49
2022-08-28T16:56:39.787Z,23.56
2022-08-28T16:59:10.420Z,23.10
2022-08-28T17:01:42.635Z,23.04
2022-08-28T17:04:10.557Z,23.16
2022-08-28T17:06:37.669Z,23.08
2022-08-28T17:09:07.874Z,22.88
2022-08-28T17:11:35.300Z,23.02
2022-08-28T17:14:08.091Z,22.87
2022-08-28T17:17:13.026Z,23.26
2022-08-28T17:20:33.239Z,22.63
2022-08-28T17:23:09.621Z,22.87
2022-08-28T17:26:13.451Z,22.51
2022-08-28T17:28:41.860Z,22.34
2022-08-28T17:35:40.332Z,22.24
2022-08-28T17:38:17.198Z,22.28
2022-08-28T17:44:43.577Z,22.04
2022-08-28T17:47:31.003Z,21.92
2022-08-28T17:50:06.165Z,22.04
2022-08-28T18:11:36.916Z,21.48
2022-08-28T18:14:12.276Z,21.16
2022-08-28T18:16:39.492Z,21.10
2022-08-28T18:19:08.852Z,21.20
2022-08-28T18:21:37.378Z,21.10
2022-08-28T18:24:05.125Z,21.03
2022-08-28T18:26:32.581Z,20.85
2022-08-28T18:29:08.349Z,20.82
2022-08-28T18:31:38.870Z,20.85
2022-08-28T18:34:10.982Z,20.70
2022-08-28T18:36:45.244Z,20.58
2022-08-28T18:39:15.314Z,20.47
2022-08-28T18:41:58.795Z,20.37
2022-08-28T18:44:25.884Z,20.25
2022-08-28T18:46:55.448Z,20.38
2022-08-28T18:49:23.085Z,20.53
2022-08-28T18:51:50.770Z,20.33
2022-08-28T18:54:19.068Z,20.10
2022-08-28T18:56:48.745Z,20.11
2022-08-28T18:59:19.911Z,20.07
2022-08-28T19:01:47.168Z,20.23
2022-08-28T19:04:14.135Z,20.23
2022-08-28T19:06:44.445Z,20.27
2022-08-28T19:09:19.166Z,20.14
2022-08-28T19:11:49.077Z,20.23
2022-08-28T19:14:15.985Z,20.32
2022-08-28T19:16:45.917Z,19.96
2022-08-28T19:19:19.330Z,19.77
2022-08-28T19:21:46.742Z,19.78
2022-08-28T19:24:46.363Z,19.72
2022-08-28T19:27:13.917Z,19.58
2022-08-28T19:29:40.803Z,19.55
2022-08-28T19:32:08.197Z,19.69
2022-08-28T19:34:35.074Z,19.61
2022-08-28T19:37:02.013Z,19.55
2022-08-28T19:40:06.505Z,19.50
2022-08-28T19:42:39.469Z,19.57
2022-08-28T19:45:08.895Z,19.52
2022-08-28T19:47:41.236Z,19.59
2022-08-28T19:50:14.647Z,19.51
2022-08-28T19:52:43.188Z,19.49
2022-08-28T19:55:18.855Z,19.43
2022-08-28T20:07:20.702Z,19.34
2022-08-28T20:10:35.416Z,19.40
2022-08-28T20:13:03.039Z,19.45
2022-08-28T20:15:44.531Z,19.14
2022-08-28T20:18:14.302Z,19.13
2022-08-28T20:32:42.744Z,19.23
2022-08-28T20:35:52.406Z,19.11
2022-08-28T20:38:54.609Z,19.18
2022-08-28T20:45:38.148Z,18.89
2022-08-28T20:48:33.145Z,18.88
2022-08-28T20:51:56.457Z,18.64
2022-08-28T20:54:46.246Z,18.75
2022-08-28T21:00:38.321Z,18.74
2022-08-28T21:06:28.609Z,18.49
2022-08-28T21:09:11.957Z,18.49
2022-08-28T21:12:05.557Z,18.12
2022-08-28T21:14:37.286Z,18.28
2022-08-28T21:17:22.621Z,18.28
2022-08-28T21:20:49.596Z,18.23
2022-08-28T21:23:27.013Z,18.25
2022-08-28T21:26:11.213Z,18.09
2022-08-28T21:28:38.613Z,18.10
2022-08-28T21:31:13.712Z,18.12
2022-08-28T21:33:41.906Z,18.10
2022-08-28T21:36:10.336Z,18.11
2022-08-28T21:38:37.588Z,18.07
2022-08-28T21:41:05.814Z,17.89
2022-08-28T21:43:32.877Z,18.00
2022-08-28T21:46:03.629Z,18.07
2022-08-28T21:48:41.467Z,17.97
2022-08-28T21:51:12.546Z,18.01
2022-08-28T21:53:41.927Z,17.99
2022-08-28T21:56:08.851Z,18.07
2022-08-28T21:58:37.117Z,17.99
2022-08-28T22:01:08.292Z,18.07
2022-08-28T22:03:35.261Z,17.94
2022-08-28T22:06:02.322Z,18.00
2022-08-28T22:08:37.043Z,18.08
2022-08-28T22:11:03.868Z,17.80
2022-08-28T22:13:30.666Z,17.77
2022-08-28T22:15:57.502Z,17.80
2022-08-28T22:18:24.390Z,17.43
2022-08-28T22:21:20.523Z,17.40
2022-08-28T22:23:50.187Z,17.26
2022-08-28T22:26:20.894Z,17.33
2022-08-28T22:28:51.333Z,17.39
2022-08-28T22:31:19.484Z,17.43
2022-08-28T22:33:46.570Z,17.37
2022-08-28T22:36:16.022Z,17.37
2022-08-28T22:38:49.785Z,17.29
2022-08-28T22:41:20.298Z,17.24
2022-08-28T22:43:49.741Z,17.30
2022-08-28T22:46:17.415Z,17.40
2022-08-28T22:48:45.306Z,17.41
2022-08-28T22:51:14.618Z,17.18
2022-08-28T22:53:44.574Z,17.05
2022-08-28T22:56:12.811Z,17.09
2022-08-28T22:58:40.220Z,17.18
2022-08-28T23:01:16.028Z,17.08
2022-08-28T23:03:44.168Z,17.00
2022-08-28T23:06:13.790Z,16.99
2022-08-28T23:08:48.518Z,16.96
2022-08-28T23:20:47.237Z,16.81
2022-08-28T23:33:41.179Z,16.74
2022-08-28T23:36:08.407Z,16.69
2022-08-28T23:38:43.196Z,16.71
2022-08-28T23:41:16.616Z,16.80
2022-08-28T23:43:44.344Z,16.80
2022-08-28T23:46:18.404Z,16.78
2022-08-28T23:49:01.334Z,16.74
2022-08-28T23:51:29.118Z,16.62
2022-08-28T23:54:00.571Z,16.52
2022-08-28T23:56:39.217Z,16.49
2022-08-28T23:59:06.964Z,16.35
